Islip, NY (11751)

9:48 PM EDT on August 28, 2016 (GMT -0400)
Brentwood | | Change Station
Active Advisory: Coastal Hazard Statement

Elev 39 ft 40.76 °N, 73.21 °W | Updated 12 minutes ago

Scattered Clouds
Scattered Clouds
72.1 °F
Feels Like 72 °F
N
0.0
Wind Variable Wind from SSW

Today
High -- | Low -- °F
--% Chance of Precip.
Yesterday
High -- | Low -- °F
Precip. -- in
Pressure 30.16 in
Visibility 10.0 miles
Clouds Scattered Clouds 25000 ft
Heat Index 72 °F
Dew Point 66 °F
Humidity 82%
Rainfall 0.00 in
Snow Depth Not available.
6:16 AM 7:30 PM
Waning Crescent, 12% visible
METAR KISP 290056Z 17006KT 10SM SCT250 23/18 A3016 RMK AO2 SLP212 T02330178 $
Pressure 30.16 in
Visibility 10.0 miles
Clouds Scattered Clouds 25000 ft
Heat Index 72 °F
Dew Point 66 °F
Humidity 82%
Rainfall 0.00 in
Snow Depth Not available.
6:16 AM 7:30 PM
Waning Crescent, 12% visible
METAR KISP 290056Z 17006KT 10SM SCT250 23/18 A3016 RMK AO2 SLP212 T02330178 $

10-Day Weather Forecast

Almanac

Astronomy

Aug. 28, 2016 Rise Set
Actual Time
Civil Twilight
Nautical Twilight
Astronomical Twilight
Moon
Length of Visible Light
Length of Day
Tomorrow will be .
, % of the Moon is Illuminated

Today's Extremes

State Highs State Lows

Community

WunderPhotos

Upload Photos

1,935,757 photos uploaded!

WunderBlog® & News

Nearby

Air Quality

  Air Quality AQ Index Pollutant
Not available.

Snow Depth

Station Depth Elevation

Earthquake Activity

City Distance Mag. Time & Date
Minimum magnitude displayed is 2.5.

Coastal Water Temperatures

Place Temperature

Stations

Nearby Weather Stations

Station Location Temp. Windchill Dew Point Humidity Wind Precip. Elev Updated Type
                   

Watches & Warnings

Coastal Hazard Statement
Issued: 4:29 PM EDT Aug. 28, 2016 – National Weather Service

... High rip current risk in effect from Monday morning through
Monday evening...

The National Weather Service in Upton has issued a high rip
current risk... which is in effect from Monday morning through
Monday evening.

* Locations... the ocean beaches of Suffolk County.

* Rip current risk... high

* surf height... around 4 feet.

* Lightning risk... none

* timing... through the day Monday.

Precautionary/preparedness actions...

Rip currents are powerful channels of water flowing quickly away
from shore... which occur most often at low spots or breaks in The
Sandbar and in the vicinity of structures such as groins...
jetties and piers. Talk to lifeguards and beach officials to
learn about any surf hazards and heed their advice. Pay attention
to flags and posted signs and swim in life guarded areas.

If you become caught in a rip current... Yell for help. Remain
calm... do not exhaust yourself and stay afloat while waiting for
help. If you have to swim out of a rip current... swim parallel to
shore. Once you are away from the force of the rip current...
begin to swim back toward the beach. Do not attempt to swim
directly against a rip current as you will tire quickly.